Terminal Aerodrome Forecast
Issued by NWS

Home | Current Version | Previous Version | Text Only | Print | Product List | Glossary On
Versions: 1 2 3 4 5 6 7 8 9 10 11 12 13 14 15 16 17 18
000
FTUS45 KABQ 272300 RRA
TAFFMN
TAF
KFMN 272341Z 2800/2824 VRB06KT P6SM SKC
      TEMPO 2804/2807 BKN007
     FM280700 07005KT P6SM BKN012 BKN150
     FM282000 26006KT P6SM SCT150 SCT250=

USA.gov is the U.S. government's official web portal to all federal, state and local government web resources and services.